createdAt,value
2017-07-19T00:00:36.861Z,4.53
2017-07-19T00:03:04.310Z,4.70
2017-07-19T00:05:31.777Z,4.97
2017-07-19T00:08:00.033Z,4.23
2017-07-19T00:10:27.485Z,3.60
2017-07-19T00:12:54.949Z,4.30
2017-07-19T00:15:22.397Z,3.77
2017-07-19T00:17:49.871Z,3.90
2017-07-19T00:20:17.338Z,4.77
2017-07-19T00:22:44.794Z,4.77
2017-07-19T00:25:13.012Z,4.50
2017-07-19T00:27:40.493Z,4.30
2017-07-19T00:30:07.937Z,4.30
2017-07-19T00:32:35.398Z,4.73
2017-07-19T00:35:02.869Z,3.60
2017-07-19T00:37:30.435Z,3.60
2017-07-19T00:39:57.881Z,3.80
2017-07-19T00:42:25.329Z,3.73
2017-07-19T00:44:52.785Z,3.03
2017-07-19T00:47:20.238Z,3.90
2017-07-19T00:49:47.699Z,4.00
2017-07-19T00:52:15.154Z,3.93
2017-07-19T00:54:42.627Z,4.57
2017-07-19T00:57:10.069Z,4.77
2017-07-19T00:59:37.535Z,4.37
2017-07-19T01:02:04.985Z,4.70
2017-07-19T01:04:32.450Z,4.57
2017-07-19T01:06:59.897Z,3.80
2017-07-19T01:09:27.350Z,4.57
2017-07-19T01:11:54.798Z,5.17
2017-07-19T01:14:22.263Z,4.80
2017-07-19T01:16:49.714Z,4.77
2017-07-19T01:19:17.162Z,2.90
2017-07-19T01:21:44.655Z,3.63
2017-07-19T01:24:12.098Z,3.20
2017-07-19T01:26:39.549Z,3.00
2017-07-19T01:29:06.989Z,2.37
2017-07-19T01:31:34.445Z,3.07
2017-07-19T01:34:01.901Z,3.37
2017-07-19T01:36:29.369Z,3.90
2017-07-19T01:38:56.942Z,3.70
2017-07-19T01:41:24.390Z,3.13
2017-07-19T01:43:51.855Z,2.80
2017-07-19T01:46:19.314Z,3.03
2017-07-19T01:48:46.863Z,2.50
2017-07-19T01:51:14.422Z,2.80
2017-07-19T01:53:41.871Z,2.77
2017-07-19T01:56:09.317Z,2.47
2017-07-19T01:58:36.775Z,2.37
2017-07-19T02:01:04.218Z,2.00
2017-07-19T02:03:31.697Z,2.70
2017-07-19T02:05:59.150Z,2.27
2017-07-19T02:08:26.605Z,2.90
2017-07-19T02:10:54.041Z,2.23
2017-07-19T02:13:21.523Z,2.40
2017-07-19T02:15:48.967Z,2.30
2017-07-19T02:18:16.421Z,2.20
2017-07-19T02:20:43.882Z,2.30
2017-07-19T02:23:11.325Z,2.27
2017-07-19T02:25:38.795Z,1.93
2017-07-19T02:28:06.265Z,2.00
2017-07-19T02:30:33.718Z,2.23
2017-07-19T02:33:01.173Z,2.57
2017-07-19T02:35:28.630Z,2.00
2017-07-19T02:37:56.203Z,2.20
2017-07-19T02:40:23.750Z,2.40
2017-07-19T02:42:51.211Z,2.07
2017-07-19T02:45:18.661Z,2.03
2017-07-19T02:47:46.226Z,2.10
2017-07-19T02:50:13.673Z,2.03
2017-07-19T02:52:41.134Z,1.70
2017-07-19T02:55:08.594Z,2.10
2017-07-19T02:57:36.040Z,2.57
2017-07-19T03:00:03.490Z,2.27
2017-07-19T03:02:30.951Z,2.03
2017-07-19T03:04:58.401Z,2.17
2017-07-19T03:07:25.866Z,2.23
2017-07-19T03:09:56.204Z,2.43
2017-07-19T03:12:23.657Z,1.97
2017-07-19T03:14:51.120Z,2.53
2017-07-19T03:17:18.569Z,1.93
2017-07-19T03:19:46.030Z,2.20
2017-07-19T03:22:29.269Z,1.80
2017-07-19T03:24:57.506Z,3.00
2017-07-19T03:27:24.974Z,2.13
2017-07-19T03:29:52.425Z,2.70
2017-07-19T03:32:19.871Z,2.40
2017-07-19T03:34:47.324Z,2.07
2017-07-19T03:37:14.768Z,2.83
2017-07-19T03:39:42.238Z,1.80
2017-07-19T03:42:09.715Z,2.27
2017-07-19T03:44:37.170Z,2.17
2017-07-19T03:47:04.637Z,2.00
2017-07-19T03:49:32.082Z,2.37
2017-07-19T03:51:59.540Z,2.80
2017-07-19T03:54:26.987Z,2.43
2017-07-19T03:56:54.447Z,2.40
2017-07-19T03:59:21.890Z,2.40
2017-07-19T04:01:49.371Z,2.87
2017-07-19T04:04:16.831Z,2.10
2017-07-19T04:06:44.293Z,1.70
2017-07-19T04:09:11.743Z,2.30
2017-07-19T04:11:39.290Z,2.17
2017-07-19T04:14:06.845Z,2.00
2017-07-19T04:16:34.402Z,2.10
2017-07-19T04:19:01.854Z,1.90
2017-07-19T04:21:29.311Z,1.90
2017-07-19T04:23:56.765Z,1.93
2017-07-19T04:26:24.213Z,2.10
2017-07-19T04:28:51.691Z,2.20
2017-07-19T04:31:19.133Z,2.40
2017-07-19T04:33:46.702Z,2.30
2017-07-19T04:36:14.150Z,2.10
2017-07-19T04:38:41.615Z,2.20
2017-07-19T04:41:09.058Z,2.30
2017-07-19T04:43:36.501Z,2.10
2017-07-19T04:46:03.954Z,1.70
2017-07-19T04:48:31.450Z,1.83
2017-07-19T04:50:58.906Z,1.90
2017-07-19T04:53:26.359Z,1.73
2017-07-19T04:55:53.813Z,2.37
2017-07-19T04:58:21.261Z,2.30
2017-07-19T05:00:48.721Z,2.20
2017-07-19T05:03:16.158Z,2.03
2017-07-19T05:05:43.612Z,2.20
2017-07-19T05:08:11.059Z,2.13
2017-07-19T05:10:38.501Z,2.40
2017-07-19T05:13:06.003Z,2.37
2017-07-19T05:15:33.453Z,2.27
2017-07-19T05:18:01.014Z,2.53
2017-07-19T05:20:28.462Z,2.40
2017-07-19T05:22:55.935Z,2.00
2017-07-19T05:25:23.394Z,2.93
2017-07-19T05:27:50.853Z,2.90
2017-07-19T05:30:18.401Z,3.07
2017-07-19T05:32:45.967Z,3.33
2017-07-19T05:35:13.410Z,2.87
2017-07-19T05:37:40.863Z,2.63
2017-07-19T05:40:08.376Z,2.30
2017-07-19T05:42:35.830Z,2.50
2017-07-19T05:45:03.343Z,2.37
2017-07-19T05:47:30.790Z,2.23
2017-07-19T05:49:58.250Z,1.97
2017-07-19T05:52:25.693Z,2.73
2017-07-19T05:54:53.154Z,1.73
2017-07-19T05:57:20.627Z,1.90
2017-07-19T05:59:48.083Z,2.23
2017-07-19T06:02:15.529Z,1.73
2017-07-19T06:04:43.094Z,2.10
2017-07-19T06:07:10.554Z,1.70
2017-07-19T06:09:38.001Z,1.40
2017-07-19T06:12:05.461Z,1.60
2017-07-19T06:14:32.914Z,1.70
2017-07-19T06:17:00.365Z,1.60
2017-07-19T06:19:27.838Z,1.43
2017-07-19T06:21:55.294Z,1.57
2017-07-19T06:24:22.749Z,1.70
2017-07-19T06:26:50.310Z,1.50
2017-07-19T06:29:17.766Z,1.70
2017-07-19T06:31:45.321Z,2.60
2017-07-19T06:34:12.769Z,2.53
2017-07-19T06:36:40.212Z,3.27
2017-07-19T06:39:07.673Z,2.10
2017-07-19T06:41:35.145Z,1.80
2017-07-19T06:44:02.697Z,1.53
2017-07-19T06:46:30.156Z,1.57
2017-07-19T06:48:57.709Z,1.70
2017-07-19T06:51:25.163Z,1.43
2017-07-19T06:53:52.617Z,1.70
2017-07-19T06:56:20.067Z,2.00
2017-07-19T06:58:47.529Z,1.83
2017-07-19T07:01:14.997Z,1.70
2017-07-19T07:03:42.458Z,1.70
2017-07-19T07:06:09.899Z,2.00
2017-07-19T07:08:37.346Z,1.77
2017-07-19T07:11:04.801Z,2.03
2017-07-19T07:13:32.255Z,1.90
2017-07-19T07:15:59.713Z,1.57
2017-07-19T07:18:27.159Z,1.83
2017-07-19T07:20:54.618Z,1.77
2017-07-19T07:23:22.065Z,2.13
2017-07-19T07:25:49.525Z,2.20
2017-07-19T07:28:16.980Z,2.00
2017-07-19T07:30:44.441Z,2.37
2017-07-19T07:33:11.894Z,1.93
2017-07-19T07:35:39.377Z,2.40
2017-07-19T07:38:06.933Z,2.60
2017-07-19T07:40:34.381Z,2.50
2017-07-19T07:43:01.845Z,3.17
2017-07-19T07:45:29.297Z,2.57
2017-07-19T07:47:56.757Z,2.50
2017-07-19T07:50:24.225Z,3.40
2017-07-19T07:52:51.667Z,3.03
2017-07-19T07:55:19.129Z,2.93
2017-07-19T07:57:46.610Z,1.90
2017-07-19T08:00:14.056Z,2.20
2017-07-19T08:02:41.510Z,2.00
2017-07-19T08:05:08.957Z,2.17
2017-07-19T08:07:36.525Z,2.03
2017-07-19T08:10:03.974Z,2.27
2017-07-19T08:12:31.529Z,2.37
2017-07-19T08:14:59.090Z,2.20
2017-07-19T08:17:26.538Z,2.13
2017-07-19T08:19:54.101Z,2.37
2017-07-19T08:22:21.665Z,3.73
2017-07-19T08:24:49.118Z,2.13
2017-07-19T08:27:16.678Z,3.80
2017-07-19T08:29:44.139Z,2.83
2017-07-19T08:32:11.590Z,2.80
2017-07-19T08:34:39.051Z,2.30
2017-07-19T08:37:06.505Z,3.63
2017-07-19T08:39:33.953Z,2.90
2017-07-19T08:42:01.520Z,3.50
2017-07-19T08:44:28.957Z,2.47
2017-07-19T08:46:56.414Z,3.53
2017-07-19T08:49:23.894Z,2.70
2017-07-19T08:51:51.344Z,3.10
2017-07-19T08:54:18.801Z,2.13
2017-07-19T08:56:46.365Z,3.17
2017-07-19T08:59:13.811Z,2.37
2017-07-19T09:01:41.276Z,3.13
2017-07-19T09:04:08.731Z,2.93
2017-07-19T09:06:36.167Z,2.50
2017-07-19T09:09:03.629Z,2.33
2017-07-19T09:11:31.096Z,2.60
2017-07-19T09:13:58.546Z,2.40
2017-07-19T09:16:25.985Z,2.37
2017-07-19T09:18:53.464Z,2.33
2017-07-19T09:21:20.900Z,2.50
2017-07-19T09:23:48.357Z,2.33
2017-07-19T09:26:15.829Z,2.90
2017-07-19T09:28:43.281Z,2.70
2017-07-19T09:31:10.726Z,3.00
2017-07-19T09:33:38.296Z,2.80
2017-07-19T09:36:05.753Z,2.67
2017-07-19T09:38:33.310Z,2.80
2017-07-19T09:41:00.872Z,2.80
2017-07-19T09:43:28.428Z,2.60
2017-07-19T09:45:55.885Z,2.70
2017-07-19T09:48:23.441Z,2.70
2017-07-19T09:50:51.010Z,2.67
2017-07-19T09:53:18.462Z,3.43
2017-07-19T09:55:46.021Z,2.83
2017-07-19T09:58:13.465Z,2.60
2017-07-19T10:00:40.917Z,2.57
2017-07-19T10:03:08.393Z,3.40
2017-07-19T10:05:35.841Z,2.63
2017-07-19T10:08:03.298Z,2.93
2017-07-19T10:10:30.765Z,2.83
2017-07-19T10:12:58.210Z,2.80
2017-07-19T10:15:25.665Z,2.90
2017-07-19T10:17:53.131Z,3.80
2017-07-19T10:20:20.582Z,2.80
2017-07-19T10:22:48.143Z,3.40
2017-07-19T10:25:15.604Z,3.57
2017-07-19T10:27:43.063Z,3.43
2017-07-19T10:30:10.509Z,3.73
2017-07-19T10:32:37.965Z,3.83
2017-07-19T10:35:05.536Z,3.03
2017-07-19T10:37:32.989Z,3.60
2017-07-19T10:40:00.441Z,2.73
2017-07-19T10:42:27.901Z,3.33
2017-07-19T10:44:55.349Z,3.40
2017-07-19T10:47:22.800Z,3.17
2017-07-19T10:49:50.250Z,3.50
2017-07-19T10:52:17.707Z,3.00
2017-07-19T10:54:45.164Z,3.10
2017-07-19T10:57:12.631Z,2.70
2017-07-19T10:59:40.075Z,3.60
2017-07-19T11:02:13.309Z,3.00
2017-07-19T11:04:41.557Z,3.17
2017-07-19T11:07:09.015Z,3.10
2017-07-19T11:09:36.463Z,2.97
2017-07-19T11:12:03.917Z,3.40
2017-07-19T11:14:31.369Z,3.07
2017-07-19T11:16:58.933Z,3.53
2017-07-19T11:19:26.493Z,3.30
2017-07-19T11:21:53.973Z,3.33
2017-07-19T11:24:21.513Z,2.83
2017-07-19T11:26:48.973Z,2.73
2017-07-19T11:29:16.517Z,3.13
2017-07-19T11:31:43.961Z,3.77
2017-07-19T11:34:11.421Z,3.30
2017-07-19T11:36:38.878Z,2.60
2017-07-19T11:39:06.334Z,3.27
2017-07-19T11:41:33.773Z,3.47
2017-07-19T11:44:01.231Z,2.83
2017-07-19T11:46:28.680Z,2.80
2017-07-19T11:48:56.130Z,2.93
2017-07-19T11:51:23.635Z,3.00
2017-07-19T11:53:51.106Z,2.43
2017-07-19T11:56:18.538Z,2.30
2017-07-19T11:58:45.993Z,2.47
2017-07-19T12:01:13.433Z,2.33
2017-07-19T12:03:40.910Z,2.40
2017-07-19T12:06:08.353Z,3.47
2017-07-19T12:08:35.933Z,2.80
2017-07-19T12:11:03.382Z,2.60
2017-07-19T12:13:30.836Z,3.00
2017-07-19T12:15:58.399Z,3.30
2017-07-19T12:18:25.921Z,2.63
2017-07-19T12:20:53.409Z,3.57
2017-07-19T12:23:20.853Z,2.93
2017-07-19T12:25:48.417Z,2.80
2017-07-19T12:28:15.887Z,3.23
2017-07-19T12:30:43.338Z,3.00
2017-07-19T12:33:10.782Z,2.80
2017-07-19T12:35:38.241Z,3.40
2017-07-19T12:38:05.685Z,3.23
2017-07-19T12:40:33.169Z,2.93
2017-07-19T12:43:00.610Z,3.53
2017-07-19T12:45:28.074Z,3.40
2017-07-19T12:47:55.629Z,2.77
2017-07-19T12:50:23.092Z,3.03
2017-07-19T12:52:50.542Z,3.00
2017-07-19T12:55:18.010Z,2.73
2017-07-19T12:57:45.452Z,2.90
2017-07-19T13:00:12.901Z,2.63
2017-07-19T13:02:40.362Z,2.90
2017-07-19T13:05:07.814Z,2.77
2017-07-19T13:07:35.265Z,3.07
2017-07-19T13:10:02.747Z,3.20
2017-07-19T13:12:30.203Z,3.07
2017-07-19T13:14:57.650Z,3.10
2017-07-19T13:17:25.102Z,2.57
2017-07-19T13:19:52.661Z,2.90
2017-07-19T13:22:20.997Z,2.87
2017-07-19T13:24:48.497Z,2.80
2017-07-19T13:27:15.957Z,2.97
2017-07-19T13:29:43.481Z,3.33
2017-07-19T13:32:10.925Z,3.27
2017-07-19T13:34:38.380Z,3.10
2017-07-19T13:37:05.831Z,2.57
2017-07-19T13:39:33.283Z,3.27
2017-07-19T13:42:00.733Z,3.50
2017-07-19T13:44:28.266Z,2.93
2017-07-19T13:46:55.814Z,2.70
2017-07-19T13:49:23.269Z,2.93
2017-07-19T13:51:50.713Z,2.87
2017-07-19T13:54:18.172Z,3.00
2017-07-19T13:56:45.611Z,3.57
2017-07-19T13:59:13.059Z,2.33
2017-07-19T14:01:40.528Z,3.67
2017-07-19T14:04:07.986Z,4.73
2017-07-19T14:06:35.429Z,4.40
2017-07-19T14:09:02.881Z,5.27
2017-07-19T14:11:30.343Z,4.00
2017-07-19T14:13:57.803Z,3.53
2017-07-19T14:16:25.281Z,5.37
2017-07-19T14:18:52.733Z,4.20
2017-07-19T14:21:20.305Z,4.53
2017-07-19T14:23:47.762Z,3.90
2017-07-19T14:26:15.209Z,4.07
2017-07-19T14:28:42.657Z,4.20
2017-07-19T14:31:10.107Z,3.87
2017-07-19T14:33:37.577Z,3.73
2017-07-19T14:36:05.014Z,3.90
2017-07-19T14:38:32.488Z,4.00
2017-07-19T14:41:00.046Z,3.50
2017-07-19T14:43:27.492Z,3.57
2017-07-19T14:45:54.965Z,3.87
2017-07-19T14:48:22.409Z,3.20
2017-07-19T14:50:49.865Z,3.10
2017-07-19T14:53:17.313Z,3.30
2017-07-19T14:55:44.781Z,3.97
2017-07-19T14:58:12.230Z,3.93
2017-07-19T15:00:39.681Z,4.10
2017-07-19T15:03:07.153Z,3.97
2017-07-19T15:05:34.609Z,3.47
2017-07-19T15:08:02.180Z,3.40
2017-07-19T15:10:29.630Z,3.60
2017-07-19T15:12:57.178Z,3.70
2017-07-19T15:15:24.639Z,3.97
2017-07-19T15:17:52.087Z,3.80
2017-07-19T15:20:19.541Z,3.90
2017-07-19T15:22:46.990Z,3.40
2017-07-19T15:25:14.470Z,3.83
2017-07-19T15:27:41.930Z,3.63
2017-07-19T15:30:10.143Z,3.90
2017-07-19T15:32:37.662Z,3.60
2017-07-19T15:35:05.117Z,3.53
2017-07-19T15:37:32.574Z,3.40
2017-07-19T15:40:00.122Z,4.57
2017-07-19T15:42:27.573Z,3.87
2017-07-19T15:44:55.027Z,4.20
2017-07-19T15:47:22.498Z,3.60
2017-07-19T15:49:50.176Z,3.67
2017-07-19T15:52:17.722Z,4.07
2017-07-19T15:54:45.172Z,3.90
2017-07-19T15:57:12.633Z,4.07
2017-07-19T15:59:40.101Z,3.80
2017-07-19T16:02:07.534Z,3.37
2017-07-19T16:04:34.989Z,4.17
2017-07-19T16:07:02.442Z,3.40
2017-07-19T16:09:30.005Z,3.53
2017-07-19T16:11:57.445Z,4.00
2017-07-19T16:14:24.906Z,3.60
2017-07-19T16:16:52.382Z,4.00
2017-07-19T16:19:19.934Z,3.60
2017-07-19T16:21:47.460Z,3.50
2017-07-19T16:24:14.958Z,3.63
2017-07-19T16:26:42.414Z,3.70
2017-07-19T16:29:09.957Z,3.40
2017-07-19T16:31:37.527Z,3.63
2017-07-19T16:34:05.074Z,3.43
2017-07-19T16:36:32.541Z,3.43
2017-07-19T16:38:59.992Z,3.27
2017-07-19T16:41:27.463Z,4.50
2017-07-19T16:43:54.924Z,3.13
2017-07-19T16:46:23.151Z,3.33
2017-07-19T16:48:50.610Z,3.47
2017-07-19T16:51:18.058Z,3.30
2017-07-19T16:53:45.509Z,3.53
2017-07-19T16:56:13.037Z,3.50
2017-07-19T16:58:40.490Z,3.03
2017-07-19T17:01:08.717Z,4.20
2017-07-19T17:03:36.195Z,3.40
2017-07-19T17:06:03.750Z,3.50
2017-07-19T17:08:31.197Z,4.10
2017-07-19T17:10:58.657Z,3.63
2017-07-19T17:13:26.217Z,3.77
2017-07-19T17:15:53.773Z,4.10
2017-07-19T17:18:21.241Z,3.53
2017-07-19T17:20:48.685Z,3.50
2017-07-19T17:23:16.142Z,3.47
2017-07-19T17:25:43.618Z,4.00
2017-07-19T17:28:11.165Z,3.43
2017-07-19T17:30:38.621Z,3.90
2017-07-19T17:33:06.066Z,3.30
2017-07-19T17:35:33.624Z,3.93
2017-07-19T17:38:01.074Z,4.13
2017-07-19T17:40:28.661Z,4.30
2017-07-19T17:42:56.112Z,3.90
2017-07-19T17:45:23.576Z,3.50
2017-07-19T17:47:51.024Z,3.73
2017-07-19T17:50:18.492Z,5.13
2017-07-19T17:52:45.933Z,4.07
2017-07-19T17:55:13.388Z,4.37
2017-07-19T17:57:40.854Z,3.93
2017-07-19T18:00:08.308Z,3.77
2017-07-19T18:02:35.761Z,3.40
2017-07-19T18:05:03.212Z,5.10
2017-07-19T18:07:30.669Z,3.80
2017-07-19T18:09:58.125Z,4.33
2017-07-19T18:12:25.689Z,3.90
2017-07-19T18:14:53.128Z,3.37
2017-07-19T18:17:21.922Z,3.87
2017-07-19T18:19:49.365Z,4.20
2017-07-19T18:22:16.821Z,4.40
2017-07-19T18:24:44.302Z,4.00
2017-07-19T18:27:11.754Z,4.10
2017-07-19T18:29:39.209Z,4.53
2017-07-19T18:32:06.760Z,4.17
2017-07-19T18:34:37.002Z,4.73
2017-07-19T18:37:04.606Z,4.10
2017-07-19T18:39:32.102Z,4.53
2017-07-19T18:41:59.657Z,5.57
2017-07-19T18:44:27.138Z,5.70
2017-07-19T18:46:55.758Z,4.33
2017-07-19T18:49:23.245Z,3.83
2017-07-19T18:51:50.699Z,4.40
2017-07-19T18:54:18.164Z,4.63
2017-07-19T18:56:45.622Z,4.20
2017-07-19T18:59:13.207Z,5.10
2017-07-19T19:01:41.487Z,3.70
2017-07-19T19:04:08.926Z,4.43
2017-07-19T19:06:36.383Z,4.40
2017-07-19T19:09:04.798Z,4.83
2017-07-19T19:11:32.253Z,5.53
2017-07-19T19:13:59.709Z,4.87
2017-07-19T19:16:27.180Z,5.13
2017-07-19T19:18:54.628Z,5.13
2017-07-19T19:21:22.124Z,5.10
2017-07-19T19:23:49.594Z,4.50
2017-07-19T19:26:17.042Z,5.17
2017-07-19T19:28:44.603Z,4.90
2017-07-19T19:31:12.107Z,5.33
2017-07-19T19:33:39.559Z,4.73
2017-07-19T19:36:07.065Z,4.00
2017-07-19T19:38:34.523Z,4.87
2017-07-19T19:41:01.983Z,5.60
2017-07-19T19:43:29.438Z,4.90
2017-07-19T19:45:56.890Z,5.83
2017-07-19T19:48:24.352Z,5.37
2017-07-19T19:50:51.905Z,5.90
2017-07-19T19:53:19.357Z,6.00
2017-07-19T19:55:46.817Z,5.70
2017-07-19T19:58:14.261Z,6.10
2017-07-19T20:00:41.722Z,5.30
2017-07-19T20:03:09.182Z,5.03
2017-07-19T20:05:36.757Z,5.17
2017-07-19T20:08:04.231Z,5.37
2017-07-19T20:10:31.687Z,6.57
2017-07-19T20:12:59.920Z,5.13
2017-07-19T20:15:27.403Z,5.03
2017-07-19T20:17:54.858Z,6.00
2017-07-19T20:20:22.313Z,6.33
2017-07-19T20:22:49.778Z,6.17
2017-07-19T20:25:17.234Z,5.40
2017-07-19T20:27:44.682Z,4.27
2017-07-19T20:30:12.124Z,3.90
2017-07-19T20:32:39.693Z,3.57
2017-07-19T20:35:07.150Z,3.43
2017-07-19T20:37:34.608Z,6.17
2017-07-19T20:40:02.163Z,4.53
2017-07-19T20:42:29.639Z,4.63
2017-07-19T20:44:57.093Z,4.97
2017-07-19T20:47:24.627Z,4.60
2017-07-19T20:49:52.073Z,4.80
2017-07-19T20:52:19.558Z,4.40
2017-07-19T20:54:47.005Z,5.20
2017-07-19T20:57:14.553Z,6.13
2017-07-19T20:59:42.126Z,5.60
2017-07-19T21:02:09.574Z,5.10
2017-07-19T21:04:37.025Z,5.53
2017-07-19T21:07:04.469Z,4.33
2017-07-19T21:09:33.292Z,4.93
2017-07-19T21:12:02.314Z,4.80
2017-07-19T21:14:29.816Z,4.30
2017-07-19T21:16:57.297Z,5.13
2017-07-19T21:19:24.785Z,6.70
2017-07-19T21:21:53.034Z,5.33
2017-07-19T21:24:20.620Z,5.40
2017-07-19T21:26:48.863Z,4.97
2017-07-19T21:29:16.342Z,4.90
2017-07-19T21:31:44.626Z,5.13
2017-07-19T21:34:12.872Z,4.53
2017-07-19T21:36:40.357Z,4.60
2017-07-19T21:39:08.813Z,5.57
2017-07-19T21:41:36.392Z,4.73
2017-07-19T21:44:03.867Z,4.47
2017-07-19T21:46:31.417Z,4.80
2017-07-19T21:48:58.996Z,4.47
2017-07-19T21:51:26.510Z,5.77
2017-07-19T21:53:53.979Z,5.23
2017-07-19T21:56:22.246Z,4.07
2017-07-19T21:58:50.503Z,4.97
2017-07-19T22:02:38.777Z,3.93
2017-07-19T22:05:07.027Z,4.80
2017-07-19T22:07:34.538Z,4.67
2017-07-19T22:10:02.029Z,4.67
2017-07-19T22:12:29.511Z,4.70
2017-07-19T22:14:57.780Z,4.73
2017-07-19T22:17:25.267Z,4.80
2017-07-19T22:19:52.753Z,4.37
2017-07-19T22:22:20.240Z,4.93
2017-07-19T22:24:47.727Z,5.23
2017-07-19T22:27:16.011Z,5.83
2017-07-19T22:29:44.280Z,7.63
2017-07-19T22:32:12.559Z,6.07
2017-07-19T22:34:40.828Z,5.73
2017-07-19T22:37:09.067Z,5.60
2017-07-19T22:39:36.558Z,5.50
2017-07-19T22:42:04.820Z,7.13
2017-07-19T22:44:32.387Z,5.40
2017-07-19T22:47:00.668Z,6.37
2017-07-19T22:49:28.944Z,7.47
2017-07-19T22:51:57.197Z,6.33
2017-07-19T22:54:24.780Z,6.93
2017-07-19T22:56:53.034Z,9.70
2017-07-19T22:59:20.512Z,9.10
2017-07-19T23:01:48.789Z,7.37
2017-07-19T23:04:17.044Z,9.07
2017-07-19T23:06:44.550Z,8.83
2017-07-19T23:09:12.035Z,11.63
2017-07-19T23:11:39.518Z,9.03
2017-07-19T23:14:07.011Z,9.20
2017-07-19T23:16:34.499Z,9.20
2017-07-19T23:19:02.010Z,8.67
2017-07-19T23:21:29.555Z,8.03
2017-07-19T23:23:57.849Z,7.83
2017-07-19T23:26:25.387Z,8.80
2017-07-19T23:28:53.641Z,7.60
2017-07-19T23:31:21.232Z,8.33
2017-07-19T23:33:49.500Z,7.50
2017-07-19T23:36:17.779Z,7.57
2017-07-19T23:38:46.023Z,8.30
2017-07-19T23:41:13.511Z,7.77
2017-07-19T23:43:41.761Z,8.60
2017-07-19T23:46:09.247Z,8.30
2017-07-19T23:48:37.502Z,6.93
2017-07-19T23:51:04.991Z,7.07
2017-07-19T23:53:32.471Z,7.20
2017-07-19T23:55:59.996Z,7.60
2017-07-19T23:58:28.246Z,8.47
